Terminal Aerodrome Forecast
Issued by NWS

Home | Current Version | Previous Version | Text Only | Print | Product List | Glossary On
Versions: 1 2 3 4 5 6 7 8 9 10 11 12 13 14 15 16 17 18 19 20 21
000
FTUS44 KBMX 292221 AAA
TAFTCL
TAF AMD
KTCL 292221Z 2922/3018 21008KT P6SM VCTS SCT035CB BKN050 OVC110
      TEMPO 2922/3001 VRB15G25KT 5SM TSRA BR OVC035CB
     FM300300 VRB03KT P6SM VCSH BKN080
     FM301600 19008KT P6SM BKN080=

USA.gov is the U.S. government's official web portal to all federal, state and local government web resources and services.